Time;durP1;ratioP1;P1;durP2;ratioP2;P2;SDS_P1;SDS_P2;PMS_P1;PMS_P2;Temp;Humidity;BMP_temperature;BMP_pressure;BME280_temperature;BME280_humidity;BME280_pressure;Samples;Min_cycle;Max_cycle;Signal;HPM_P1;HPM_P2
2022/12/01 00:01:46;;;;;;;;;;;7.80;99.90;;;;;;7342446;19;109537;-69
2022/12/01 00:04:13;;;;;;;;;;;7.80;99.90;;;;;;7341247;19;109178;-70
2022/12/01 00:06:40;;;;;;;;;;;7.80;99.90;;;;;;7343232;19;108985;-69
2022/12/01 00:11:53;;;;;;;;;;;7.80;99.90;;;;;;7341268;19;111094;-71
2022/12/01 00:14:20;;;;;;;;;;;7.80;99.90;;;;;;7338773;19;108724;-72
2022/12/01 00:16:47;;;;;;;;;;;7.80;99.90;;;;;;7342031;19;109443;-70
2022/12/01 00:19:14;;;;;;;;;;;7.80;99.90;;;;;;7343646;19;110323;-70
2022/12/01 00:21:40;;;;;;;;;;;7.80;99.90;;;;;;7341276;19;108307;-70
2022/12/01 00:24:09;;;;;;;;;;;7.80;99.90;;;;;;7339961;19;109982;-70
2022/12/01 00:26:36;;;;;;;;;;;7.70;99.90;;;;;;7343308;19;108459;-70
2022/12/01 00:29:03;;;;;;;;;;;7.70;99.90;;;;;;7340688;19;109101;-70
2022/12/01 00:31:30;;;;;;;;;;;7.60;99.90;;;;;;7339725;19;109128;-75
2022/12/01 00:33:57;;;;;;;;;;;7.60;99.90;;;;;;7341110;19;108464;-70
2022/12/01 00:36:24;;;;;;;;;;;7.50;99.90;;;;;;7340404;19;108928;-77
2022/12/01 00:38:52;;;;;;;;;;;7.40;99.90;;;;;;7346951;19;109691;-71
2022/12/01 00:41:19;;;;;;;;;;;7.50;99.90;;;;;;7343057;19;109169;-75
2022/12/01 00:43:46;;;;;;;;;;;7.40;99.90;;;;;;7338491;19;109681;-71
2022/12/01 00:46:13;;;;;;;;;;;7.40;99.90;;;;;;7339588;19;109205;-73
2022/12/01 00:48:40;;;;;;;;;;;7.40;99.90;;;;;;7339092;19;110643;-76
2022/12/01 00:51:07;;;;;;;;;;;7.40;99.90;;;;;;7337234;19;109226;-74
2022/12/01 00:53:34;;;;;;;;;;;7.40;99.90;;;;;;7340397;19;109003;-70
2022/12/01 00:56:01;;;;;;;;;;;7.40;99.90;;;;;;7338992;19;108440;-70
2022/12/01 00:58:28;;;;;;;;;;;7.40;99.90;;;;;;7340653;19;109452;-71
2022/12/01 01:00:58;;;;;;;;;;;7.50;99.90;;;;;;7347354;19;108568;-70
2022/12/01 01:03:26;;;;;;;;;;;7.40;99.90;;;;;;7339741;19;112215;-70
2022/12/01 01:05:53;;;;;;;;;;;7.40;99.90;;;;;;7340500;19;108653;-70
2022/12/01 01:08:20;;;;;;;;;;;7.50;99.90;;;;;;7339298;19;110389;-70
2022/12/01 01:10:47;;;;;;;;;;;7.50;99.90;;;;;;7340194;19;111783;-70
2022/12/01 01:13:14;;;;;;;;;;;7.50;99.90;;;;;;7340071;19;110115;-70
2022/12/01 01:15:41;;;;;;;;;;;7.60;99.90;;;;;;7340919;19;108753;-69
2022/12/01 01:18:10;;;;;;;;;;;7.50;99.90;;;;;;7338163;19;109327;-70
2022/12/01 01:20:37;;;;;;;;;;;7.50;99.90;;;;;;7340833;19;108665;-69
2022/12/01 01:23:04;;;;;;;;;;;7.50;99.90;;;;;;7344514;19;110176;-69
2022/12/01 01:25:32;;;;;;;;;;;7.50;99.90;;;;;;7338524;19;109303;-70
2022/12/01 01:27:59;;;;;;;;;;;7.50;99.90;;;;;;7340486;19;109572;-69
2022/12/01 01:30:26;;;;;;;;;;;7.50;99.90;;;;;;7337550;19;114584;-69
2022/12/01 01:32:53;;;;;;;;;;;7.50;99.90;;;;;;7336830;19;108619;-69
2022/12/01 01:35:20;;;;;;;;;;;7.50;99.90;;;;;;7337760;19;110576;-69
2022/12/01 01:37:48;;;;;;;;;;;7.50;99.90;;;;;;7340117;19;110311;-69
2022/12/01 01:40:15;;;;;;;;;;;7.50;99.90;;;;;;7340469;19;108860;-70
2022/12/01 01:42:42;;;;;;;;;;;7.50;99.90;;;;;;7339472;19;109752;-69
2022/12/01 01:45:18;;;;;;;;;;;7.50;99.90;;;;;;7341974;19;110353;-69
2022/12/01 01:47:46;;;;;;;;;;;7.60;99.90;;;;;;7340244;19;108792;-69
2022/12/01 01:50:15;;;;;;;;;;;7.50;99.90;;;;;;7337570;19;109926;-69
2022/12/01 01:52:43;;;;;;;;;;;7.50;99.90;;;;;;7337813;19;108410;-70
2022/12/01 01:55:11;;;;;;;;;;;7.50;99.90;;;;;;7338252;19;108793;-69
2022/12/01 01:57:39;;;;;;;;;;;7.50;99.90;;;;;;7338114;19;112139;-70
2022/12/01 02:00:10;;;;;;;;;;;7.50;99.90;;;;;;7337892;19;108653;-70
2022/12/01 02:02:39;;;;;;;;;;;7.50;99.90;;;;;;7338515;19;109248;-69
2022/12/01 02:05:09;;;;;;;;;;;7.50;99.90;;;;;;7335778;19;109259;-69
2022/12/01 02:07:38;;;;;;;;;;;7.50;99.90;;;;;;7345915;19;108845;-70
2022/12/01 02:10:10;;;;;;;;;;;7.50;99.90;;;;;;7335080;19;129690;-70
2022/12/01 02:12:40;;;;;;;;;;;7.50;99.90;;;;;;7336076;19;109407;-69
2022/12/01 02:15:09;;;;;;;;;;;7.40;99.90;;;;;;7334890;19;109518;-70
2022/12/01 02:17:39;;;;;;;;;;;7.40;99.90;;;;;;7337940;19;110453;-70
2022/12/01 02:20:10;;;;;;;;;;;7.40;99.90;;;;;;7337207;19;108551;-70
2022/12/01 02:22:46;;;;;;;;;;;7.40;99.90;;;;;;7338436;19;109178;-70
2022/12/01 02:25:19;;;;;;;;;;;7.40;99.90;;;;;;7336848;19;111168;-70
2022/12/01 02:27:58;;;;;;;;;;;7.40;99.90;;;;;;7337930;19;108456;-69
2022/12/01 02:30:37;;;;;;;;;;;7.40;99.90;;;;;;7342883;19;109708;-70
2022/12/01 02:33:04;;;;;;;;;;;7.50;99.90;;;;;;7336427;19;110412;-70
2022/12/01 02:35:34;;;;;;;;;;;7.50;99.90;;;;;;7336904;19;108674;-71
2022/12/01 02:38:24;;;;;;;;;;;7.50;99.90;;;;;;7335839;19;110400;-70
2022/12/01 02:40:54;;;;;;;;;;;7.40;99.90;;;;;;7337579;19;109622;-70
2022/12/01 02:43:44;;;;;;;;;;;7.40;99.90;;;;;;7334632;19;108360;-70
2022/12/01 02:46:15;;;;;;;;;;;7.50;99.90;;;;;;7332580;19;109606;-70
2022/12/01 02:48:45;;;;;;;;;;;7.50;99.90;;;;;;7337346;19;109743;-69
2022/12/01 02:51:31;;;;;;;;;;;7.40;99.90;;;;;;7339691;19;109070;-70
2022/12/01 02:53:59;;;;;;;;;;;7.50;99.90;;;;;;7335550;19;108693;-69
2022/12/01 02:56:26;;;;;;;;;;;7.40;99.90;;;;;;7336702;19;109837;-70
2022/12/01 02:58:53;;;;;;;;;;;7.40;99.90;;;;;;7334944;19;109443;-69
2022/12/01 03:01:55;;;;;;;;;;;7.30;99.90;;;;;;7336474;19;109085;-70
2022/12/01 03:04:25;;;;;;;;;;;7.30;99.90;;;;;;7331186;19;109377;-69
2022/12/01 03:07:02;;;;;;;;;;;7.30;99.90;;;;;;7331289;19;109472;-70
2022/12/01 03:09:55;;;;;;;;;;;7.30;99.90;;;;;;7333231;19;109040;-70
2022/12/01 03:12:27;;;;;;;;;;;7.40;99.90;;;;;;7330787;19;109996;-69
2022/12/01 03:15:17;;;;;;;;;;;7.40;99.90;;;;;;7338608;19;110019;-69
2022/12/01 03:17:49;;;;;;;;;;;7.50;99.90;;;;;;7333649;19;109312;-70
2022/12/01 03:20:20;;;;;;;;;;;7.50;99.90;;;;;;7333378;19;110484;-69
2022/12/01 03:22:51;;;;;;;;;;;7.40;99.90;;;;;;7333551;19;109649;-69
2022/12/01 03:25:18;;;;;;;;;;;7.40;99.90;;;;;;7331431;19;109506;-70
2022/12/01 03:27:47;;;;;;;;;;;7.40;99.90;;;;;;7333422;19;110984;-69
2022/12/01 03:30:38;;;;;;;;;;;7.40;99.90;;;;;;7333108;19;108399;-69
2022/12/01 03:33:08;;;;;;;;;;;7.40;99.90;;;;;;7333397;19;109323;-69
2022/12/01 03:35:40;;;;;;;;;;;7.50;99.90;;;;;;7332677;19;113368;-69
2022/12/01 03:38:16;;;;;;;;;;;7.50;99.90;;;;;;7338507;19;109269;-69
2022/12/01 03:40:44;;;;;;;;;;;7.50;99.90;;;;;;7339404;19;110631;-69
2022/12/01 03:43:14;;;;;;;;;;;7.40;99.90;;;;;;7336584;19;109655;-70
2022/12/01 03:45:41;;;;;;;;;;;7.40;99.90;;;;;;7335565;19;110420;-69
2022/12/01 03:48:09;;;;;;;;;;;7.40;99.90;;;;;;7335169;19;109780;-70
2022/12/01 03:50:40;;;;;;;;;;;7.50;99.90;;;;;;7337624;19;108798;-70
2022/12/01 03:53:10;;;;;;;;;;;7.50;99.90;;;;;;7335792;19;109342;-70
2022/12/01 03:55:41;;;;;;;;;;;7.50;99.90;;;;;;7342109;19;110320;-69
2022/12/01 03:58:13;;;;;;;;;;;7.50;99.90;;;;;;7342907;19;109083;-69
2022/12/01 04:00:40;;;;;;;;;;;7.50;99.90;;;;;;7347279;19;108511;-70
2022/12/01 04:03:07;;;;;;;;;;;7.50;99.90;;;;;;7339243;19;108707;-71
2022/12/01 04:05:34;;;;;;;;;;;7.50;99.90;;;;;;7339903;19;108699;-69
2022/12/01 04:08:01;;;;;;;;;;;7.50;99.90;;;;;;7340000;19;113043;-69
2022/12/01 04:10:28;;;;;;;;;;;7.50;99.90;;;;;;7340429;19;109561;-69
2022/12/01 04:12:58;;;;;;;;;;;7.50;99.90;;;;;;7343289;19;109111;-69
2022/12/01 04:15:26;;;;;;;;;;;7.50;99.90;;;;;;7340679;19;111656;-69
2022/12/01 04:17:53;;;;;;;;;;;7.40;99.90;;;;;;7342273;19;108565;-69
2022/12/01 04:20:20;;;;;;;;;;;7.40;99.90;;;;;;7341778;19;109734;-69
2022/12/01 04:22:47;;;;;;;;;;;7.30;99.90;;;;;;7346203;19;110045;-69
2022/12/01 04:25:14;;;;;;;;;;;7.30;99.90;;;;;;7341640;19;109326;-69
2022/12/01 04:27:40;;;;;;;;;;;7.30;99.90;;;;;;7341342;19;112739;-69
2022/12/01 04:30:08;;;;;;;;;;;7.40;99.90;;;;;;7342769;19;108380;-69
2022/12/01 04:32:41;;;;;;;;;;;7.40;99.90;;;;;;7344069;19;108765;-69
2022/12/01 04:35:09;;;;;;;;;;;7.40;99.90;;;;;;7338825;19;110771;-69
2022/12/01 04:37:37;;;;;;;;;;;7.40;99.90;;;;;;7343592;19;109656;-69
2022/12/01 04:40:05;;;;;;;;;;;7.40;99.90;;;;;;7339553;19;109456;-69
2022/12/01 04:42:32;;;;;;;;;;;7.40;99.90;;;;;;7342317;19;109170;-69
2022/12/01 04:44:59;;;;;;;;;;;7.40;99.90;;;;;;7349444;19;108784;-69
2022/12/01 04:47:25;;;;;;;;;;;7.40;99.90;;;;;;7340075;19;110724;-69
2022/12/01 04:49:53;;;;;;;;;;;7.40;99.90;;;;;;7341688;19;109802;-69
2022/12/01 04:52:20;;;;;;;;;;;7.40;99.90;;;;;;7340040;19;108674;-69
2022/12/01 04:54:47;;;;;;;;;;;7.40;99.90;;;;;;7341375;19;110017;-69
2022/12/01 04:57:13;;;;;;;;;;;7.30;99.90;;;;;;7340922;19;108469;-69
2022/12/01 04:59:40;;;;;;;;;;;7.30;99.90;;;;;;7342025;19;109305;-69
2022/12/01 05:02:07;;;;;;;;;;;7.30;99.90;;;;;;7341221;19;110446;-69
2022/12/01 05:04:37;;;;;;;;;;;7.20;99.90;;;;;;7347806;19;108498;-69
2022/12/01 05:07:04;;;;;;;;;;;7.30;99.90;;;;;;7337305;19;110185;-69
2022/12/01 05:09:31;;;;;;;;;;;7.30;99.90;;;;;;7342650;19;108944;-69
2022/12/01 05:11:58;;;;;;;;;;;7.30;99.90;;;;;;7339267;19;109100;-69
2022/12/01 05:14:25;;;;;;;;;;;7.30;99.90;;;;;;7338684;19;109743;-69
2022/12/01 05:16:53;;;;;;;;;;;7.30;99.90;;;;;;7340877;19;109117;-69
2022/12/01 05:22:05;;;;;;;;;;;7.40;99.90;;;;;;7341245;19;110263;-69
2022/12/01 05:24:32;;;;;;;;;;;7.40;99.90;;;;;;7340771;19;108340;-69
2022/12/01 05:26:59;;;;;;;;;;;7.40;99.90;;;;;;7347348;19;108992;-69
2022/12/01 05:29:26;;;;;;;;;;;7.40;99.90;;;;;;7339493;19;108610;-69
2022/12/01 05:31:53;;;;;;;;;;;7.40;99.90;;;;;;7340332;19;108581;-69
2022/12/01 05:34:20;;;;;;;;;;;7.40;99.90;;;;;;7339701;19;109227;-69
2022/12/01 05:36:47;;;;;;;;;;;7.40;99.90;;;;;;7340575;19;108329;-69
2022/12/01 05:39:14;;;;;;;;;;;7.30;99.90;;;;;;7340293;19;109671;-69
2022/12/01 05:41:41;;;;;;;;;;;7.30;99.90;;;;;;7340494;19;110282;-69
2022/12/01 05:44:08;;;;;;;;;;;7.40;99.90;;;;;;7341865;19;108359;-69
2022/12/01 05:46:35;;;;;;;;;;;7.40;99.90;;;;;;7340966;19;111322;-69
2022/12/01 05:49:02;;;;;;;;;;;7.40;99.90;;;;;;7346512;19;111147;-69
2022/12/01 05:51:29;;;;;;;;;;;7.40;99.90;;;;;;7339184;19;108276;-69
2022/12/01 05:53:57;;;;;;;;;;;7.40;99.90;;;;;;7339016;19;109688;-69
2022/12/01 05:56:24;;;;;;;;;;;7.40;99.90;;;;;;7338436;19;109277;-69
2022/12/01 05:58:51;;;;;;;;;;;7.40;99.90;;;;;;7338525;19;109244;-69
2022/12/01 06:01:18;;;;;;;;;;;7.50;99.90;;;;;;7338415;19;110240;-69
2022/12/01 06:03:45;;;;;;;;;;;7.50;99.90;;;;;;7338147;19;108619;-69
2022/12/01 06:06:12;;;;;;;;;;;7.60;99.90;;;;;;7337544;19;108732;-69
2022/12/01 06:08:39;;;;;;;;;;;7.60;99.90;;;;;;7335775;19;110821;-69
2022/12/01 06:11:05;;;;;;;;;;;7.60;99.90;;;;;;7341744;19;109615;-69
2022/12/01 06:13:32;;;;;;;;;;;7.60;99.90;;;;;;7337599;19;109801;-71
2022/12/01 06:16:01;;;;;;;;;;;7.60;99.90;;;;;;7341475;19;108568;-69
2022/12/01 06:18:35;;;;;;;;;;;7.70;99.90;;;;;;7337865;19;108584;-69
2022/12/01 06:21:02;;;;;;;;;;;7.70;99.90;;;;;;7339097;19;110712;-69
2022/12/01 06:23:29;;;;;;;;;;;7.70;99.90;;;;;;7341442;19;108562;-69
2022/12/01 06:25:56;;;;;;;;;;;7.70;99.90;;;;;;7337339;19;109169;-69
2022/12/01 06:28:23;;;;;;;;;;;7.70;99.90;;;;;;7337439;19;109237;-69
2022/12/01 06:30:51;;;;;;;;;;;7.70;99.90;;;;;;7338054;19;114666;-69
2022/12/01 06:33:23;;;;;;;;;;;7.70;99.90;;;;;;7341020;19;108915;-69
2022/12/01 06:36:00;;;;;;;;;;;7.70;99.90;;;;;;7337028;19;108488;-69
2022/12/01 06:38:34;;;;;;;;;;;7.70;99.90;;;;;;7336267;19;109136;-69
2022/12/01 06:41:01;;;;;;;;;;;7.70;99.90;;;;;;7338633;19;110418;-69
2022/12/01 06:43:28;;;;;;;;;;;7.70;99.90;;;;;;7336054;19;109027;-69
2022/12/01 06:45:55;;;;;;;;;;;7.70;99.90;;;;;;7336616;19;111379;-69
2022/12/01 06:48:28;;;;;;;;;;;7.60;99.90;;;;;;7335109;19;110629;-69
2022/12/01 06:50:58;;;;;;;;;;;7.60;99.90;;;;;;7338528;19;108773;-69
2022/12/01 06:53:27;;;;;;;;;;;7.60;99.90;;;;;;7341992;19;109597;-69
2022/12/01 06:55:58;;;;;;;;;;;7.60;99.90;;;;;;7335442;19;109477;-69
2022/12/01 06:58:25;;;;;;;;;;;7.50;99.90;;;;;;7334164;19;109294;-69
2022/12/01 07:00:52;;;;;;;;;;;7.50;99.90;;;;;;7334118;19;110639;-69
2022/12/01 07:03:19;;;;;;;;;;;7.50;99.90;;;;;;7336525;19;108696;-69
2022/12/01 07:05:53;;;;;;;;;;;7.50;99.90;;;;;;7334984;19;109629;-69
2022/12/01 07:08:20;;;;;;;;;;;7.50;99.90;;;;;;7338014;19;109205;-69
2022/12/01 07:10:54;;;;;;;;;;;7.50;99.90;;;;;;7336880;19;108605;-69
2022/12/01 07:13:21;;;;;;;;;;;7.60;99.90;;;;;;7334950;19;110476;-69
2022/12/01 07:15:48;;;;;;;;;;;7.50;99.90;;;;;;7342234;19;110428;-69
2022/12/01 07:18:16;;;;;;;;;;;7.40;99.90;;;;;;7335849;19;108414;-69
2022/12/01 07:20:43;;;;;;;;;;;7.40;99.90;;;;;;7337793;19;109059;-69
2022/12/01 07:23:09;;;;;;;;;;;7.40;99.90;;;;;;7334602;19;108575;-69
2022/12/01 07:25:36;;;;;;;;;;;7.50;99.90;;;;;;7335670;19;111788;-69
2022/12/01 07:28:03;;;;;;;;;;;7.40;99.90;;;;;;7335812;19;109813;-69
2022/12/01 07:30:30;;;;;;;;;;;7.40;99.90;;;;;;7340399;19;108464;-69
2022/12/01 07:32:58;;;;;;;;;;;7.30;99.90;;;;;;7341416;19;111862;-70
2022/12/01 07:35:25;;;;;;;;;;;7.30;99.90;;;;;;7341207;19;110268;-69
2022/12/01 07:37:55;;;;;;;;;;;7.40;99.90;;;;;;7348229;19;108507;-69
2022/12/01 07:40:22;;;;;;;;;;;7.40;99.90;;;;;;7339459;19;110269;-69
2022/12/01 07:42:49;;;;;;;;;;;7.40;99.90;;;;;;7343401;19;109441;-70
2022/12/01 07:45:16;;;;;;;;;;;7.30;99.90;;;;;;7343767;19;109196;-69
2022/12/01 07:47:43;;;;;;;;;;;7.40;99.90;;;;;;7344300;19;110396;-71
2022/12/01 07:50:12;;;;;;;;;;;7.40;99.90;;;;;;7340213;19;109738;-69
2022/12/01 07:52:39;;;;;;;;;;;7.30;99.90;;;;;;7345377;19;109162;-69
2022/12/01 07:55:06;;;;;;;;;;;7.30;99.90;;;;;;7343052;19;110200;-70
2022/12/01 07:57:33;;;;;;;;;;;7.30;99.90;;;;;;7344537;19;108763;-72
2022/12/01 08:00:00;;;;;;;;;;;7.30;99.90;;;;;;7345462;19;108657;-70
2022/12/01 08:02:27;;;;;;;;;;;7.30;99.90;;;;;;7340558;19;108587;-69
2022/12/01 08:04:54;;;;;;;;;;;7.30;99.90;;;;;;7342422;19;111610;-69
2022/12/01 08:07:21;;;;;;;;;;;7.30;99.90;;;;;;7341860;19;109245;-69
2022/12/01 08:09:55;;;;;;;;;;;7.30;99.90;;;;;;7341371;19;108953;-69
2022/12/01 08:12:22;;;;;;;;;;;7.30;99.90;;;;;;7341614;19;108777;-69
2022/12/01 08:14:49;;;;;;;;;;;7.40;99.90;;;;;;7340185;19;109218;-69
2022/12/01 08:17:16;;;;;;;;;;;7.40;99.90;;;;;;7339156;19;109318;-69
2022/12/01 08:19:43;;;;;;;;;;;7.40;99.90;;;;;;7342186;19;110141;-69
2022/12/01 08:22:09;;;;;;;;;;;7.40;99.90;;;;;;7346453;19;110549;-69
2022/12/01 08:24:36;;;;;;;;;;;7.40;99.90;;;;;;7342046;19;109201;-69
2022/12/01 08:27:03;;;;;;;;;;;7.40;99.90;;;;;;7342167;19;109745;-69
2022/12/01 08:29:30;;;;;;;;;;;7.40;99.90;;;;;;7343624;19;108448;-69
2022/12/01 08:31:57;;;;;;;;;;;7.50;99.90;;;;;;7341196;19;109136;-69
2022/12/01 08:34:24;;;;;;;;;;;7.50;99.90;;;;;;7338781;19;108822;-69
2022/12/01 08:36:51;;;;;;;;;;;7.50;99.90;;;;;;7341491;19;108886;-69
2022/12/01 08:39:18;;;;;;;;;;;7.60;99.90;;;;;;7339772;19;111313;-69
2022/12/01 08:41:45;;;;;;;;;;;7.60;99.90;;;;;;7339081;19;109057;-69
2022/12/01 08:44:12;;;;;;;;;;;7.60;99.90;;;;;;7346958;19;109571;-69
2022/12/01 08:46:39;;;;;;;;;;;7.60;99.90;;;;;;7342586;19;110323;-69
2022/12/01 08:49:06;;;;;;;;;;;7.60;99.90;;;;;;7340017;19;108520;-69
2022/12/01 08:51:35;;;;;;;;;;;7.60;99.90;;;;;;7340859;19;108271;-69
2022/12/01 08:54:02;;;;;;;;;;;7.60;99.90;;;;;;7339142;19;114742;-69
2022/12/01 08:56:31;;;;;;;;;;;7.60;99.90;;;;;;7341370;19;108545;-69
2022/12/01 08:58:58;;;;;;;;;;;7.60;99.90;;;;;;7340293;19;108558;-69
2022/12/01 09:01:25;;;;;;;;;;;7.60;99.90;;;;;;7338479;19;114728;-69
2022/12/01 09:04:04;;;;;;;;;;;7.60;99.90;;;;;;7345387;19;108537;-69
2022/12/01 09:06:42;;;;;;;;;;;7.60;99.90;;;;;;7338845;19;110102;-70
2022/12/01 09:09:10;;;;;;;;;;;7.70;99.90;;;;;;7338138;19;109900;-69
2022/12/01 09:11:37;;;;;;;;;;;7.70;99.90;;;;;;7341906;19;108973;-69
2022/12/01 09:14:04;;;;;;;;;;;7.70;99.90;;;;;;7340215;19;110627;-69
2022/12/01 09:16:31;;;;;;;;;;;7.70;99.90;;;;;;7339718;19;108540;-69
2022/12/01 09:18:58;;;;;;;;;;;7.70;99.90;;;;;;7339090;19;111547;-69
2022/12/01 09:21:26;;;;;;;;;;;7.60;99.90;;;;;;7338996;19;113786;-69
2022/12/01 09:23:53;;;;;;;;;;;7.70;99.90;;;;;;7339668;19;108911;-69
2022/12/01 09:26:20;;;;;;;;;;;7.70;99.90;;;;;;7345708;19;108331;-69
2022/12/01 09:28:55;;;;;;;;;;;7.70;99.90;;;;;;7341386;19;108470;-69
2022/12/01 09:31:22;;;;;;;;;;;7.70;99.90;;;;;;7338959;19;109301;-69
2022/12/01 09:33:59;;;;;;;;;;;7.70;99.90;;;;;;7338887;19;110340;-69
2022/12/01 09:36:26;;;;;;;;;;;7.70;99.90;;;;;;7337002;19;111522;-69
2022/12/01 09:38:53;;;;;;;;;;;7.60;99.90;;;;;;7339642;19;109524;-69
2022/12/01 09:41:22;;;;;;;;;;;7.70;99.90;;;;;;7338899;19;110073;-69
2022/12/01 09:43:55;;;;;;;;;;;7.70;99.90;;;;;;7340525;19;108907;-69
2022/12/01 09:46:25;;;;;;;;;;;7.70;99.90;;;;;;7340739;19;109232;-69
2022/12/01 09:48:52;;;;;;;;;;;7.70;99.90;;;;;;7345804;19;110136;-69
2022/12/01 09:51:20;;;;;;;;;;;7.70;99.90;;;;;;7339341;19;109186;-69
2022/12/01 09:53:49;;;;;;;;;;;7.70;99.90;;;;;;7338141;19;109991;-69
2022/12/01 09:56:26;;;;;;;;;;;7.80;99.90;;;;;;7339047;19;108662;-69
2022/12/01 09:58:58;;;;;;;;;;;7.70;99.90;;;;;;7337510;19;108376;-69
2022/12/01 10:01:35;;;;;;;;;;;7.80;99.90;;;;;;7336975;19;110296;-69
2022/12/01 10:04:20;;;;;;;;;;;7.80;99.90;;;;;;7338036;19;109328;-69
2022/12/01 10:06:52;;;;;;;;;;;7.80;99.90;;;;;;7336627;19;109056;-69
2022/12/01 10:09:19;;;;;;;;;;;7.80;99.90;;;;;;7335698;19;109169;-69
2022/12/01 10:11:47;;;;;;;;;;;7.80;99.90;;;;;;7345350;19;108400;-69
2022/12/01 10:14:16;;;;;;;;;;;7.90;99.90;;;;;;7337118;19;110148;-70
2022/12/01 10:17:02;;;;;;;;;;;7.90;99.90;;;;;;7339644;19;108761;-69
2022/12/01 10:19:37;;;;;;;;;;;7.90;99.90;;;;;;7338558;19;109308;-69
2022/12/01 10:22:04;;;;;;;;;;;7.90;99.90;;;;;;7338230;19;110301;-69
2022/12/01 10:24:43;;;;;;;;;;;8.00;99.90;;;;;;7336612;19;109297;-69
2022/12/01 10:27:10;;;;;;;;;;;8.00;99.90;;;;;;7337103;19;109347;-69
2022/12/01 10:29:50;;;;;;;;;;;8.10;99.90;;;;;;7339472;19;110510;-69
2022/12/01 10:32:18;;;;;;;;;;;8.00;99.90;;;;;;7336850;19;108934;-69
2022/12/01 10:34:46;;;;;;;;;;;8.00;99.90;;;;;;7343107;19;109335;-69
2022/12/01 10:37:21;;;;;;;;;;;8.10;99.90;;;;;;7339229;19;108649;-69
2022/12/01 10:39:48;;;;;;;;;;;8.10;99.90;;;;;;7338525;19;109562;-69
2022/12/01 10:42:22;;;;;;;;;;;8.10;99.90;;;;;;7337687;19;112030;-69
2022/12/01 10:44:49;;;;;;;;;;;8.10;99.90;;;;;;7338488;19;108913;-69
2022/12/01 10:47:18;;;;;;;;;;;8.10;99.90;;;;;;7337488;19;109535;-69
2022/12/01 10:49:45;;;;;;;;;;;8.10;99.90;;;;;;7336483;19;109389;-70
2022/12/01 10:52:27;;;;;;;;;;;8.10;99.90;;;;;;7339158;19;108828;-69
2022/12/01 10:54:54;;;;;;;;;;;8.10;99.90;;;;;;7339198;19;109588;-69
2022/12/01 10:57:22;;;;;;;;;;;8.10;99.90;;;;;;7342519;19;109183;-69
2022/12/01 10:59:51;;;;;;;;;;;8.10;99.90;;;;;;7337384;19;109073;-69
2022/12/01 11:02:19;;;;;;;;;;;8.20;99.90;;;;;;7335973;19;108951;-69
2022/12/01 11:04:58;;;;;;;;;;;8.20;99.90;;;;;;7339399;19;108542;-69
2022/12/01 11:07:26;;;;;;;;;;;8.20;99.90;;;;;;7343646;19;109673;-69
2022/12/01 11:10:03;;;;;;;;;;;8.20;99.90;;;;;;7343066;19;110154;-69
2022/12/01 11:12:30;;;;;;;;;;;8.20;99.90;;;;;;7343881;19;108968;-69
2022/12/01 11:14:57;;;;;;;;;;;8.20;99.90;;;;;;7344448;19;108540;-69
2022/12/01 11:17:33;;;;;;;;;;;8.30;99.90;;;;;;7347147;19;113115;-69
2022/12/01 11:20:18;;;;;;;;;;;8.40;99.90;;;;;;7345290;19;109680;-72
2022/12/01 11:22:46;;;;;;;;;;;8.40;99.90;;;;;;7345980;19;110460;-69
2022/12/01 11:25:22;;;;;;;;;;;8.40;99.90;;;;;;7343739;19;109035;-69
2022/12/01 11:27:50;;;;;;;;;;;8.40;99.90;;;;;;7344604;19;109095;-69
2022/12/01 11:30:24;;;;;;;;;;;8.50;99.90;;;;;;7342689;19;110405;-69
2022/12/01 11:32:55;;;;;;;;;;;8.50;99.90;;;;;;7342072;19;110655;-69
2022/12/01 11:35:26;;;;;;;;;;;8.50;99.90;;;;;;7342666;19;109234;-70
2022/12/01 11:37:54;;;;;;;;;;;8.50;99.90;;;;;;7342624;19;113418;-69
2022/12/01 11:40:47;;;;;;;;;;;8.50;99.90;;;;;;7349438;19;109404;-69
2022/12/01 11:43:20;;;;;;;;;;;8.50;99.90;;;;;;7340383;19;111788;-69
2022/12/01 11:45:47;;;;;;;;;;;8.50;99.90;;;;;;7342834;19;108472;-69
2022/12/01 11:48:28;;;;;;;;;;;8.70;99.90;;;;;;7342204;19;112987;-69
2022/12/01 11:51:03;;;;;;;;;;;8.80;99.90;;;;;;7341697;19;110365;-69
2022/12/01 11:53:32;;;;;;;;;;;8.70;99.90;;;;;;7343888;19;108700;-69
2022/12/01 11:56:17;;;;;;;;;;;8.60;99.90;;;;;;7342522;19;109220;-70
2022/12/01 11:58:48;;;;;;;;;;;8.60;99.90;;;;;;7341624;19;110370;-69
2022/12/01 12:01:30;;;;;;;;;;;8.70;99.90;;;;;;7341751;19;108331;-69
2022/12/01 12:04:16;;;;;;;;;;;8.70;99.90;;;;;;7343715;19;109382;-69
2022/12/01 12:06:42;;;;;;;;;;;8.80;99.90;;;;;;7342758;19;108827;-69
2022/12/01 12:09:16;;;;;;;;;;;8.80;99.90;;;;;;7341088;19;108979;-69
2022/12/01 12:12:12;;;;;;;;;;;8.70;99.90;;;;;;7341151;19;109926;-70
2022/12/01 12:14:47;;;;;;;;;;;8.70;99.90;;;;;;7337257;19;108826;-69
2022/12/01 12:17:32;;;;;;;;;;;8.70;99.90;;;;;;7336854;19;111767;-75
2022/12/01 12:20:18;;;;;;;;;;;8.70;99.90;;;;;;7336464;19;109129;-70
2022/12/01 12:22:57;;;;;;;;;;;8.90;99.90;;;;;;7338524;19;109055;-69
2022/12/01 12:25:26;;;;;;;;;;;9.00;99.90;;;;;;7338128;19;110458;-69
2022/12/01 12:28:14;;;;;;;;;;;9.10;99.90;;;;;;7341609;19;109756;-69
2022/12/01 12:31:06;;;;;;;;;;;9.10;99.90;;;;;;7338524;19;110040;-71
2022/12/01 12:33:52;;;;;;;;;;;9.00;99.90;;;;;;7337277;19;114024;-70
2022/12/01 12:36:25;;;;;;;;;;;9.00;99.90;;;;;;7336616;19;109119;-75
2022/12/01 12:38:51;;;;;;;;;;;8.90;99.90;;;;;;7336216;19;108945;-74
2022/12/01 12:41:18;;;;;;;;;;;9.00;99.90;;;;;;7334933;19;110391;-78
2022/12/01 12:43:48;;;;;;;;;;;9.10;99.90;;;;;;7338709;19;108765;-76
2022/12/01 12:46:18;;;;;;;;;;;9.30;99.90;;;;;;7337043;19;108633;-74
2022/12/01 12:48:50;;;;;;;;;;;9.40;99.90;;;;;;7336197;19;109242;-75
2022/12/01 12:51:46;;;;;;;;;;;9.50;99.90;;;;;;7344461;19;109335;-77
2022/12/01 12:54:19;;;;;;;;;;;9.50;99.90;;;;;;7338414;19;110451;-78
2022/12/01 12:56:48;;;;;;;;;;;9.60;99.90;;;;;;7342095;19;108858;-77
2022/12/01 12:59:24;;;;;;;;;;;9.60;99.90;;;;;;7338730;19;109422;-80
2022/12/01 13:02:09;;;;;;;;;;;9.70;99.90;;;;;;7338662;19;110238;-69
2022/12/01 13:04:53;;;;;;;;;;;9.70;99.90;;;;;;7339474;19;108930;-70
2022/12/01 13:07:30;;;;;;;;;;;9.70;99.90;;;;;;7339027;19;110980;-70
2022/12/01 13:10:01;;;;;;;;;;;9.70;99.90;;;;;;7338642;19;110194;-70
2022/12/01 13:12:30;;;;;;;;;;;9.50;99.90;;;;;;7340270;19;108500;-70
2022/12/01 13:14:57;;;;;;;;;;;9.40;99.90;;;;;;7345991;19;108726;-69
2022/12/01 13:17:30;;;;;;;;;;;9.50;99.90;;;;;;7339505;19;108821;-69
2022/12/01 13:19:57;;;;;;;;;;;9.50;99.90;;;;;;7339813;19;111458;-69
2022/12/01 13:22:29;;;;;;;;;;;9.40;99.90;;;;;;7337972;19;110338;-70
2022/12/01 13:24:56;;;;;;;;;;;9.40;99.90;;;;;;7339202;19;111209;-70
2022/12/01 13:27:24;;;;;;;;;;;9.40;99.90;;;;;;7337096;19;108808;-69
2022/12/01 13:29:52;;;;;;;;;;;9.40;99.90;;;;;;7340579;19;110250;-70
2022/12/01 13:32:39;;;;;;;;;;;9.30;99.90;;;;;;7341095;19;112549;-71
2022/12/01 13:35:20;;;;;;;;;;;9.30;99.90;;;;;;7343846;19;110625;-69
2022/12/01 13:37:47;;;;;;;;;;;9.40;99.90;;;;;;7340844;19;108717;-69
2022/12/01 13:40:17;;;;;;;;;;;9.30;99.90;;;;;;7338166;19;110346;-70
2022/12/01 13:42:51;;;;;;;;;;;9.20;99.90;;;;;;7339673;19;112336;-69
2022/12/01 13:45:18;;;;;;;;;;;9.20;99.90;;;;;;7339490;19;108671;-71
2022/12/01 13:47:45;;;;;;;;;;;9.20;99.90;;;;;;7334681;19;109899;-70
2022/12/01 13:50:31;;;;;;;;;;;9.30;99.90;;;;;;7338458;19;111482;-70
2022/12/01 13:53:24;;;;;;;;;;;9.30;99.90;;;;;;7339084;19;108639;-70
2022/12/01 13:55:56;;;;;;;;;;;9.30;99.90;;;;;;7339396;19;109390;-70
2022/12/01 13:58:24;;;;;;;;;;;9.30;99.90;;;;;;7345915;19;109851;-70
2022/12/01 14:00:52;;;;;;;;;;;9.40;99.90;;;;;;7339039;19;108471;-70
2022/12/01 14:03:19;;;;;;;;;;;9.50;99.90;;;;;;7336342;19;109455;-70
2022/12/01 14:05:52;;;;;;;;;;;9.60;99.90;;;;;;7338425;19;109195;-70
2022/12/01 14:08:30;;;;;;;;;;;9.80;99.90;;;;;;7337928;19;109187;-70
2022/12/01 14:10:57;;;;;;;;;;;10.10;99.90;;;;;;7338392;19;109876;-70
2022/12/01 14:13:24;;;;;;;;;;;10.30;99.90;;;;;;7337785;19;109963;-71
2022/12/01 14:15:54;;;;;;;;;;;10.40;99.90;;;;;;7336569;19;108881;-71
2022/12/01 14:18:28;;;;;;;;;;;10.60;99.90;;;;;;7337113;19;109976;-71
2022/12/01 14:20:55;;;;;;;;;;;10.40;99.90;;;;;;7342682;19;109141;-70
2022/12/01 14:23:32;;;;;;;;;;;10.50;99.90;;;;;;7337864;19;110300;-70
2022/12/01 14:26:01;;;;;;;;;;;10.60;99.90;;;;;;7340211;19;108613;-70
2022/12/01 14:28:47;;;;;;;;;;;10.70;99.90;;;;;;7338030;19;109136;-71
2022/12/01 14:31:14;;;;;;;;;;;10.70;99.90;;;;;;7336712;19;110186;-70
2022/12/01 14:33:41;;;;;;;;;;;10.70;99.90;;;;;;7338766;19;109134;-70
2022/12/01 14:36:07;;;;;;;;;;;10.60;99.90;;;;;;7337656;19;109237;-71
2022/12/01 14:38:35;;;;;;;;;;;10.60;99.90;;;;;;7334266;19;110150;-71
2022/12/01 14:41:06;;;;;;;;;;;10.60;99.90;;;;;;7337550;19;108319;-70